createdAt,value
2023-02-28T00:00:12.732Z,9.70
2023-02-28T00:01:46.080Z,9.68
2023-02-28T00:03:20.026Z,10.40
2023-02-28T00:04:54.141Z,9.70
2023-02-28T00:06:27.482Z,8.70
2023-02-28T00:07:59.817Z,11.15
2023-02-28T00:09:34.593Z,9.65
2023-02-28T00:11:11.502Z,10.50
2023-02-28T00:12:44.927Z,10.15
2023-02-28T00:14:18.044Z,11.15
2023-02-28T00:16:02.204Z,12.48
2023-02-28T00:17:35.372Z,10.88
2023-02-28T00:19:09.032Z,11.15
2023-02-28T00:20:41.249Z,10.40
2023-02-28T00:22:14.996Z,11.43
2023-02-28T00:23:48.475Z,10.70
2023-02-28T00:25:24.849Z,10.77
2023-02-28T00:26:58.115Z,9.65
2023-02-28T00:28:31.742Z,10.32
2023-02-28T00:30:07.838Z,10.90
2023-02-28T00:31:41.400Z,10.48
2023-02-28T00:33:14.788Z,11.43
2023-02-28T00:34:47.062Z,11.90
2023-02-28T00:36:21.647Z,11.07
2023-02-28T00:37:55.010Z,10.80
2023-02-28T00:39:28.279Z,10.70
2023-02-28T00:41:06.145Z,11.10
2023-02-28T00:42:39.440Z,10.40
2023-02-28T00:44:13.124Z,10.73
2023-02-28T00:45:46.408Z,11.10
2023-02-28T00:47:20.103Z,11.27
2023-02-28T00:48:53.529Z,11.93
2023-02-28T00:50:27.103Z,11.70
2023-02-28T00:52:00.232Z,11.35
2023-02-28T00:53:34.727Z,12.15
2023-02-28T00:55:08.457Z,11.57
2023-02-28T00:56:43.154Z,12.38
2023-02-28T00:58:16.485Z,12.25
2023-02-28T00:59:49.923Z,12.50
2023-02-28T01:01:23.301Z,15.55
2023-02-28T01:02:55.914Z,12.05
2023-02-28T01:04:29.503Z,12.00
2023-02-28T01:06:02.906Z,10.90
2023-02-28T01:07:36.029Z,12.85
2023-02-28T01:09:09.892Z,13.05
2023-02-28T01:10:43.385Z,13.23
2023-02-28T01:12:18.213Z,16.33
2023-02-28T01:13:54.615Z,14.35
2023-02-28T01:15:28.079Z,11.30
2023-02-28T01:17:01.372Z,11.48
2023-02-28T01:18:34.947Z,13.57
2023-02-28T01:20:11.144Z,11.05
2023-02-28T01:21:44.710Z,12.70
2023-02-28T01:23:20.414Z,11.50
2023-02-28T01:24:54.081Z,11.80
2023-02-28T01:26:27.429Z,15.30
2023-02-28T01:28:02.290Z,14.43
2023-02-28T01:29:35.656Z,14.73
2023-02-28T01:31:10.081Z,13.18
2023-02-28T01:32:44.596Z,12.07
2023-02-28T01:34:20.190Z,13.52
2023-02-28T01:36:00.152Z,12.77
2023-02-28T01:37:33.558Z,12.10
2023-02-28T01:39:06.930Z,12.50
2023-02-28T01:40:39.546Z,11.85
2023-02-28T01:42:12.734Z,12.45
2023-02-28T01:44:09.587Z,12.70
2023-02-28T01:45:42.252Z,11.88
2023-02-28T01:47:15.818Z,12.55
2023-02-28T01:48:54.004Z,12.38
2023-02-28T01:50:30.631Z,12.20
2023-02-28T01:52:06.042Z,11.35
2023-02-28T01:53:48.734Z,11.77
2023-02-28T01:55:23.519Z,11.98
2023-02-28T01:57:01.365Z,11.40
2023-02-28T01:58:35.139Z,11.75
2023-02-28T02:00:14.341Z,11.25
2023-02-28T02:01:47.540Z,11.02
2023-02-28T02:03:22.859Z,11.50
2023-02-28T02:05:00.361Z,11.40
2023-02-28T02:06:38.199Z,11.07
2023-02-28T02:08:16.498Z,10.18
2023-02-28T02:09:49.947Z,9.45
2023-02-28T02:11:25.422Z,9.68
2023-02-28T02:13:31.944Z,9.77
2023-02-28T02:15:11.844Z,10.35
2023-02-28T02:17:02.452Z,10.65
2023-02-28T02:18:40.467Z,10.93
2023-02-28T02:20:53.182Z,10.82
2023-02-28T02:23:04.038Z,10.43
2023-02-28T02:25:22.210Z,10.45
2023-02-28T02:27:07.453Z,11.25
2023-02-28T02:29:08.753Z,11.27
2023-02-28T02:31:03.116Z,10.80
2023-02-28T02:33:21.315Z,10.55
2023-02-28T02:35:04.051Z,11.30
2023-02-28T02:36:42.763Z,11.60
2023-02-28T02:38:25.405Z,12.15
2023-02-28T02:40:04.548Z,13.00
2023-02-28T02:41:47.421Z,13.65
2023-02-28T02:43:27.308Z,12.07
2023-02-28T02:45:07.653Z,11.25
2023-02-28T02:46:44.803Z,12.02
2023-02-28T02:48:21.750Z,15.90
2023-02-28T02:50:02.211Z,15.35
2023-02-28T02:51:39.571Z,13.13
2023-02-28T02:53:16.065Z,11.00
2023-02-28T02:54:52.167Z,11.38
2023-02-28T02:56:30.000Z,12.05
2023-02-28T02:58:06.775Z,13.63
2023-02-28T02:59:41.815Z,12.90
2023-02-28T03:01:18.548Z,10.50
2023-02-28T03:02:56.007Z,12.93
2023-02-28T03:04:34.458Z,14.20
2023-02-28T03:06:09.326Z,13.93
2023-02-28T03:07:42.925Z,11.95
2023-02-28T03:09:17.680Z,13.60
2023-02-28T03:10:54.696Z,12.80
2023-02-28T03:12:38.245Z,13.77
2023-02-28T03:14:32.103Z,19.52
2023-02-28T03:16:24.174Z,14.75
2023-02-28T03:18:06.769Z,16.13
2023-02-28T03:19:57.911Z,15.32
2023-02-28T03:21:41.245Z,14.88
2023-02-28T03:23:19.343Z,15.60
2023-02-28T03:25:02.105Z,15.10
2023-02-28T03:26:39.245Z,15.82
2023-02-28T03:28:18.020Z,15.48
2023-02-28T03:29:59.519Z,15.23
2023-02-28T03:31:35.794Z,14.43
2023-02-28T03:33:14.641Z,14.93
2023-02-28T03:34:58.175Z,14.50
2023-02-28T03:36:34.628Z,14.18
2023-02-28T03:38:15.515Z,14.93
2023-02-28T03:39:53.785Z,15.63
2023-02-28T03:41:33.249Z,14.75
2023-02-28T03:43:14.526Z,14.52
2023-02-28T03:44:53.636Z,15.52
2023-02-28T03:46:31.935Z,15.35
2023-02-28T03:48:12.199Z,16.92
2023-02-28T03:49:51.616Z,14.48
2023-02-28T03:51:27.653Z,15.27
2023-02-28T03:53:06.033Z,15.55
2023-02-28T03:54:45.998Z,16.17
2023-02-28T03:56:22.942Z,15.82
2023-02-28T03:58:02.817Z,15.82
2023-02-28T03:59:40.050Z,15.95
2023-02-28T04:01:21.407Z,16.45
2023-02-28T04:02:55.834Z,17.50
2023-02-28T04:04:29.409Z,17.67
2023-02-28T04:06:02.911Z,17.67
2023-02-28T04:07:36.812Z,23.65
2023-02-28T04:10:52.125Z,28.77
2023-02-28T04:12:25.938Z,20.05
2023-02-28T04:13:59.266Z,13.80
2023-02-28T04:15:33.306Z,16.70
2023-02-28T04:17:07.249Z,17.50
2023-02-28T04:18:41.318Z,16.88
2023-02-28T04:20:15.590Z,15.85
2023-02-28T04:21:51.059Z,16.92
2023-02-28T04:23:24.661Z,19.25
2023-02-28T04:24:57.007Z,22.10
2023-02-28T04:26:33.468Z,32.15
2023-02-28T04:28:07.118Z,23.33
2023-02-28T04:29:40.782Z,22.90
2023-02-28T04:31:14.084Z,20.73
2023-02-28T04:32:47.665Z,20.73
2023-02-28T04:34:22.435Z,20.75
2023-02-28T04:36:03.751Z,21.65
2023-02-28T04:37:37.996Z,17.33
2023-02-28T04:39:11.906Z,19.58
2023-02-28T04:40:45.633Z,19.45
2023-02-28T04:42:20.365Z,18.67
2023-02-28T04:43:54.583Z,18.40
2023-02-28T04:45:31.240Z,17.90
2023-02-28T04:47:05.292Z,22.25
2023-02-28T04:48:40.260Z,22.55
2023-02-28T04:50:13.601Z,24.25
2023-02-28T04:51:46.886Z,23.70
2023-02-28T04:53:20.613Z,18.42
2023-02-28T04:54:54.019Z,16.33
2023-02-28T04:56:27.247Z,16.13
2023-02-28T04:58:02.287Z,16.60
2023-02-28T04:59:35.798Z,14.02
2023-02-28T05:01:18.473Z,15.65
2023-02-28T05:02:51.828Z,14.52
2023-02-28T05:04:25.073Z,15.70
2023-02-28T05:05:57.250Z,16.38
2023-02-28T05:07:30.901Z,14.88
2023-02-28T05:09:04.968Z,15.55
2023-02-28T05:10:38.756Z,16.17
2023-02-28T05:12:12.066Z,17.48
2023-02-28T05:13:47.578Z,16.08
2023-02-28T05:15:20.993Z,13.80
2023-02-28T05:16:54.545Z,13.93
2023-02-28T05:18:27.895Z,15.68
2023-02-28T05:20:14.666Z,16.52
2023-02-28T05:21:54.241Z,15.75
2023-02-28T05:23:27.380Z,15.10
2023-02-28T05:25:01.399Z,17.00
2023-02-28T05:26:37.403Z,17.23
2023-02-28T05:28:11.070Z,15.02
2023-02-28T05:29:45.845Z,15.77
2023-02-28T05:31:18.183Z,16.45
2023-02-28T05:32:53.686Z,15.38
2023-02-28T05:34:27.113Z,17.92
2023-02-28T05:36:00.403Z,17.48
2023-02-28T05:37:32.500Z,14.10
2023-02-28T05:39:07.310Z,11.63
2023-02-28T05:40:41.621Z,10.32
2023-02-28T05:42:15.033Z,10.65
2023-02-28T05:43:48.978Z,10.93
2023-02-28T05:45:23.815Z,9.77
2023-02-28T05:46:57.076Z,11.25
2023-02-28T05:48:29.397Z,9.10
2023-02-28T05:50:02.700Z,7.65
2023-02-28T05:51:37.461Z,7.65
2023-02-28T05:53:11.598Z,7.82
2023-02-28T05:54:44.781Z,7.57
2023-02-28T05:56:18.076Z,8.00
2023-02-28T05:57:51.785Z,9.40
2023-02-28T05:59:25.125Z,7.78
2023-02-28T06:01:00.356Z,7.03
2023-02-28T06:02:33.697Z,6.00
2023-02-28T06:04:14.302Z,7.65
2023-02-28T06:05:52.680Z,8.63
2023-02-28T06:07:25.781Z,6.38
2023-02-28T06:08:59.248Z,7.47
2023-02-28T06:10:31.823Z,8.13
2023-02-28T06:12:08.350Z,8.70
2023-02-28T06:13:42.028Z,5.10
2023-02-28T06:15:16.284Z,8.00
2023-02-28T06:16:51.123Z,10.90
2023-02-28T06:18:24.465Z,16.10
2023-02-28T06:19:57.935Z,20.67
2023-02-28T06:21:31.730Z,10.93
2023-02-28T06:23:05.643Z,11.45
2023-02-28T06:24:39.071Z,10.35
2023-02-28T06:26:12.503Z,6.55
2023-02-28T06:27:46.282Z,7.07
2023-02-28T06:29:20.058Z,7.28
2023-02-28T06:30:53.509Z,8.80
2023-02-28T06:32:28.683Z,6.65
2023-02-28T06:34:00.840Z,7.55
2023-02-28T06:35:34.300Z,9.57
2023-02-28T06:37:07.727Z,9.88
2023-02-28T06:38:42.097Z,8.82
2023-02-28T06:40:16.083Z,8.48
2023-02-28T06:41:55.513Z,8.45
2023-02-28T06:43:31.199Z,5.25
2023-02-28T06:45:10.338Z,5.03
2023-02-28T06:46:44.382Z,9.25
2023-02-28T06:48:20.126Z,11.18
2023-02-28T06:49:53.672Z,8.48
2023-02-28T06:51:28.375Z,8.50
2023-02-28T06:53:01.655Z,9.25
2023-02-28T06:54:35.042Z,6.22
2023-02-28T06:56:09.634Z,5.57
2023-02-28T06:57:42.969Z,5.78
2023-02-28T06:59:16.106Z,9.50
2023-02-28T07:00:53.425Z,7.43
2023-02-28T07:02:26.717Z,6.30
2023-02-28T07:04:02.378Z,9.55
2023-02-28T07:05:37.092Z,9.30
2023-02-28T07:07:10.504Z,8.07
2023-02-28T07:08:43.928Z,8.15
2023-02-28T07:10:20.115Z,7.93
2023-02-28T07:11:53.478Z,8.43
2023-02-28T07:13:27.106Z,7.50
2023-02-28T07:15:00.659Z,8.45
2023-02-28T07:16:33.793Z,6.45
2023-02-28T07:18:07.234Z,8.80
2023-02-28T07:19:42.380Z,7.78
2023-02-28T07:21:22.732Z,7.53
2023-02-28T07:23:08.929Z,7.57
2023-02-28T07:24:56.039Z,7.53
2023-02-28T07:26:30.142Z,8.23
2023-02-28T07:28:03.736Z,8.57
2023-02-28T07:29:38.443Z,5.75
2023-02-28T07:31:13.477Z,7.90
2023-02-28T07:32:47.250Z,7.40
2023-02-28T07:34:20.502Z,8.30
2023-02-28T07:36:21.770Z,7.95
2023-02-28T07:38:02.107Z,7.10
2023-02-28T07:39:35.319Z,4.40
2023-02-28T07:41:08.771Z,7.18
2023-02-28T07:42:43.117Z,7.53
2023-02-28T07:44:16.741Z,8.23
2023-02-28T07:45:49.997Z,7.15
2023-02-28T07:47:25.500Z,6.00
2023-02-28T07:49:00.828Z,6.53
2023-02-28T07:50:36.254Z,6.85
2023-02-28T07:52:12.308Z,5.72
2023-02-28T07:53:45.644Z,7.78
2023-02-28T07:55:19.580Z,6.70
2023-02-28T07:56:52.968Z,7.75
2023-02-28T07:58:26.893Z,6.68
2023-02-28T08:00:03.541Z,7.00
2023-02-28T08:01:46.148Z,7.75
2023-02-28T08:03:20.301Z,8.15
2023-02-28T08:04:53.807Z,11.65
2023-02-28T08:06:27.866Z,10.93
2023-02-28T08:08:02.955Z,10.02
2023-02-28T08:09:36.930Z,12.02
2023-02-28T08:11:10.068Z,7.90
2023-02-28T08:12:43.316Z,12.85
2023-02-28T08:14:17.660Z,11.60
2023-02-28T08:15:50.945Z,9.57
2023-02-28T08:17:24.238Z,6.55
2023-02-28T08:18:57.600Z,6.85
2023-02-28T08:20:31.119Z,7.22
2023-02-28T08:22:04.831Z,7.85
2023-02-28T08:23:39.770Z,9.85
2023-02-28T08:25:13.165Z,7.72
2023-02-28T08:26:46.577Z,6.35
2023-02-28T08:28:20.305Z,10.50
2023-02-28T08:29:53.498Z,8.98
2023-02-28T08:31:26.831Z,9.70
2023-02-28T08:33:00.750Z,9.50
2023-02-28T08:34:34.244Z,7.40
2023-02-28T08:36:09.052Z,7.30
2023-02-28T08:37:42.411Z,6.25
2023-02-28T08:39:17.629Z,8.82
2023-02-28T08:40:50.822Z,7.53
2023-02-28T08:42:24.169Z,10.55
2023-02-28T08:43:57.407Z,9.23
2023-02-28T08:45:30.842Z,8.35
2023-02-28T08:47:04.503Z,7.97
2023-02-28T08:48:38.953Z,9.32
2023-02-28T08:50:14.560Z,8.68
2023-02-28T08:51:48.365Z,10.13
2023-02-28T08:53:34.754Z,10.00
2023-02-28T08:55:23.120Z,7.10
2023-02-28T08:57:16.954Z,8.63
2023-02-28T08:59:16.766Z,7.22
2023-02-28T09:01:11.311Z,7.80
2023-02-28T09:02:57.369Z,7.03
2023-02-28T09:04:42.803Z,5.68
2023-02-28T09:06:32.080Z,7.68
2023-02-28T09:08:18.329Z,8.55
2023-02-28T09:10:11.836Z,10.07
2023-02-28T09:11:59.814Z,9.55
2023-02-28T09:13:47.537Z,9.15
2023-02-28T09:15:40.733Z,13.77
2023-02-28T09:17:48.807Z,11.05
2023-02-28T09:19:49.377Z,13.80
2023-02-28T09:21:35.632Z,12.07
2023-02-28T09:23:28.774Z,14.75
2023-02-28T09:25:15.955Z,18.85
2023-02-28T09:27:05.578Z,14.30
2023-02-28T09:29:20.811Z,17.83
2023-02-28T09:31:20.971Z,12.77
2023-02-28T09:33:25.528Z,8.32
2023-02-28T09:35:30.831Z,8.68
2023-02-28T09:37:17.710Z,9.02
2023-02-28T09:39:10.771Z,9.93
2023-02-28T09:41:01.757Z,13.27
2023-02-28T09:42:56.999Z,11.02
2023-02-28T09:45:00.817Z,13.77
2023-02-28T09:46:51.803Z,11.07
2023-02-28T09:48:50.819Z,29.85
2023-02-28T09:50:40.885Z,24.83
2023-02-28T09:52:36.759Z,17.10
2023-02-28T09:54:20.372Z,14.25
2023-02-28T09:56:16.801Z,12.65
2023-02-28T09:58:18.739Z,11.93
2023-02-28T10:00:22.891Z,12.85
2023-02-28T10:02:09.038Z,14.38
2023-02-28T10:04:01.335Z,12.50
2023-02-28T10:05:50.845Z,13.75
2023-02-28T10:08:04.760Z,11.30
2023-02-28T10:10:10.787Z,13.18
2023-02-28T10:12:10.849Z,11.65
2023-02-28T10:14:11.793Z,11.30
2023-02-28T10:16:03.466Z,10.32
2023-02-28T10:18:08.372Z,13.35
2023-02-28T10:20:09.089Z,10.93
2023-02-28T10:22:03.624Z,13.60
2023-02-28T10:23:53.067Z,11.18
2023-02-28T10:25:33.044Z,9.90
2023-02-28T10:27:24.665Z,11.48
2023-02-28T10:29:13.075Z,10.02
2023-02-28T10:31:14.232Z,9.82
2023-02-28T10:33:07.993Z,9.57
2023-02-28T10:35:07.893Z,9.00
2023-02-28T10:37:14.766Z,11.07
2023-02-28T10:39:08.849Z,8.00
2023-02-28T10:40:56.336Z,8.57
2023-02-28T10:42:55.786Z,8.55
2023-02-28T10:44:50.836Z,7.95
2023-02-28T10:46:31.522Z,11.23
2023-02-28T10:48:38.843Z,11.52
2023-02-28T10:50:55.463Z,11.27
2023-02-28T10:52:39.570Z,9.98
2023-02-28T10:54:27.820Z,13.05
2023-02-28T10:56:23.319Z,15.25
2023-02-28T10:58:23.685Z,14.95
2023-02-28T11:00:26.845Z,10.93
2023-02-28T11:02:45.935Z,9.60
2023-02-28T11:04:52.007Z,10.00
2023-02-28T11:06:38.784Z,7.38
2023-02-28T11:08:33.883Z,9.90
2023-02-28T11:10:22.633Z,13.63
2023-02-28T11:12:17.884Z,11.38
2023-02-28T11:14:08.106Z,9.50
2023-02-28T11:16:09.005Z,12.60
2023-02-28T11:17:56.579Z,11.57
2023-02-28T11:19:49.097Z,10.18
2023-02-28T11:21:38.982Z,9.70
2023-02-28T11:23:37.847Z,9.25
2023-02-28T11:25:32.185Z,8.05
2023-02-28T11:27:55.949Z,7.18
2023-02-28T11:29:48.893Z,8.00
2023-02-28T11:31:49.905Z,7.78
2023-02-28T11:33:46.047Z,12.68
2023-02-28T11:35:43.823Z,7.88
2023-02-28T11:37:32.243Z,7.55
2023-02-28T11:39:28.365Z,8.13
2023-02-28T11:41:40.257Z,9.07
2023-02-28T11:43:47.249Z,6.20
2023-02-28T11:45:31.001Z,5.65
2023-02-28T11:47:15.161Z,6.43
2023-02-28T11:49:00.587Z,9.43
2023-02-28T11:50:50.020Z,9.02
2023-02-28T11:52:36.571Z,7.15
2023-02-28T11:54:26.765Z,7.15
2023-02-28T11:56:06.434Z,8.00
2023-02-28T11:57:55.488Z,7.93
2023-02-28T11:59:53.300Z,8.35
2023-02-28T12:01:43.317Z,8.75
2023-02-28T12:03:33.775Z,6.72
2023-02-28T12:05:20.086Z,7.65
2023-02-28T12:07:03.744Z,5.30
2023-02-28T12:08:51.475Z,6.68
2023-02-28T12:10:27.307Z,5.72
2023-02-28T12:12:11.743Z,7.28
2023-02-28T12:13:56.725Z,7.13
2023-02-28T12:15:44.897Z,6.28
2023-02-28T12:17:28.779Z,5.05
2023-02-28T12:19:15.444Z,4.38
2023-02-28T12:20:53.614Z,7.85
2023-02-28T12:22:32.696Z,7.28
2023-02-28T12:24:21.203Z,5.65
2023-02-28T12:26:04.578Z,5.65
2023-02-28T12:27:42.439Z,6.15
2023-02-28T12:29:21.422Z,7.05
2023-02-28T12:31:01.014Z,9.10
2023-02-28T12:32:37.606Z,6.22
2023-02-28T12:34:18.037Z,8.40
2023-02-28T12:35:56.724Z,7.13
2023-02-28T12:37:33.992Z,7.40
2023-02-28T12:39:13.440Z,6.07
2023-02-28T12:40:51.179Z,7.03
2023-02-28T12:42:30.294Z,5.80
2023-02-28T12:44:11.305Z,7.20
2023-02-28T12:45:51.068Z,6.78
2023-02-28T12:47:27.156Z,5.05
2023-02-28T12:49:07.347Z,6.35
2023-02-28T12:50:43.237Z,6.20
2023-02-28T12:52:22.808Z,7.28
2023-02-28T12:54:07.202Z,8.55
2023-02-28T12:55:46.524Z,8.63
2023-02-28T12:57:29.685Z,8.10
2023-02-28T12:59:13.033Z,8.70
2023-02-28T13:01:05.764Z,12.07
2023-02-28T13:03:24.946Z,12.52
2023-02-28T13:05:27.529Z,11.60
2023-02-28T13:07:26.576Z,10.40
2023-02-28T13:09:07.101Z,9.57
2023-02-28T13:10:44.505Z,11.07
2023-02-28T13:12:21.654Z,10.57
2023-02-28T13:14:01.222Z,12.32
2023-02-28T13:15:39.217Z,11.27
2023-02-28T13:17:15.193Z,10.27
2023-02-28T13:18:49.371Z,5.90
2023-02-28T13:20:25.542Z,8.18
2023-02-28T13:22:00.170Z,8.32
2023-02-28T13:24:06.173Z,6.97
2023-02-28T13:25:58.487Z,7.38
2023-02-28T13:27:37.815Z,7.25
2023-02-28T13:29:39.835Z,10.20
2023-02-28T13:31:13.304Z,9.40
2023-02-28T13:32:46.487Z,6.72
2023-02-28T13:34:19.623Z,6.75
2023-02-28T13:36:25.182Z,6.88
2023-02-28T13:38:17.515Z,6.18
2023-02-28T13:39:54.471Z,8.43
2023-02-28T13:41:45.478Z,10.55
2023-02-28T13:43:27.875Z,6.95
2023-02-28T13:45:26.200Z,7.75
2023-02-28T13:47:31.774Z,15.23
2023-02-28T13:49:30.099Z,14.35
2023-02-28T13:51:41.977Z,6.35
2023-02-28T13:53:50.591Z,9.13
2023-02-28T13:55:34.457Z,13.40
2023-02-28T13:57:22.981Z,10.38
2023-02-28T13:59:01.156Z,6.60
2023-02-28T14:00:46.212Z,8.65
2023-02-28T14:02:43.389Z,8.70
2023-02-28T14:04:56.512Z,12.20
2023-02-28T14:06:33.456Z,7.20
2023-02-28T14:08:14.862Z,9.50
2023-02-28T14:09:54.198Z,8.93
2023-02-28T14:11:35.928Z,9.63
2023-02-28T14:13:31.852Z,10.00
2023-02-28T14:15:07.023Z,10.43
2023-02-28T14:16:46.166Z,7.88
2023-02-28T14:18:27.353Z,8.52
2023-02-28T14:20:01.013Z,7.00
2023-02-28T14:21:36.685Z,8.73
2023-02-28T14:23:20.566Z,10.88
2023-02-28T14:25:17.849Z,12.98
2023-02-28T14:27:05.815Z,6.90
2023-02-28T14:28:58.040Z,11.32
2023-02-28T14:31:03.060Z,8.18
2023-02-28T14:32:44.046Z,10.73
2023-02-28T14:34:34.679Z,10.23
2023-02-28T14:36:20.442Z,3.85
2023-02-28T14:37:55.697Z,4.80
2023-02-28T14:39:32.509Z,5.90
2023-02-28T14:41:09.189Z,7.63
2023-02-28T14:42:49.816Z,4.60
2023-02-28T14:44:24.932Z,6.75
2023-02-28T14:46:01.735Z,4.80
2023-02-28T14:47:37.709Z,8.73
2023-02-28T14:49:22.527Z,26.63
2023-02-28T14:50:59.232Z,5.95
2023-02-28T14:52:34.554Z,7.38
2023-02-28T14:54:07.862Z,6.28
2023-02-28T14:55:47.493Z,7.40
2023-02-28T14:57:25.848Z,5.47
2023-02-28T14:59:00.617Z,5.65
2023-02-28T15:00:35.968Z,8.85
2023-02-28T15:02:19.883Z,11.32
2023-02-28T15:04:02.409Z,8.73
2023-02-28T15:05:37.237Z,12.60
2023-02-28T15:07:11.042Z,20.33
2023-02-28T15:08:44.225Z,23.23
2023-02-28T15:10:21.024Z,14.82
2023-02-28T15:11:54.334Z,14.32
2023-02-28T15:13:38.190Z,13.00
2023-02-28T15:15:19.596Z,11.48
2023-02-28T15:16:58.322Z,7.60
2023-02-28T15:18:45.802Z,9.50
2023-02-28T15:20:20.442Z,10.93
2023-02-28T15:22:00.239Z,6.50
2023-02-28T15:23:35.101Z,4.68
2023-02-28T15:25:12.208Z,9.68
2023-02-28T15:26:58.691Z,10.88
2023-02-28T15:28:32.778Z,10.07
2023-02-28T15:30:09.574Z,9.60
2023-02-28T15:31:57.002Z,6.50
2023-02-28T15:33:32.240Z,6.82
2023-02-28T15:35:22.507Z,6.25
2023-02-28T15:36:55.894Z,8.65
2023-02-28T15:38:30.479Z,8.07
2023-02-28T15:40:13.785Z,4.75
2023-02-28T15:41:47.215Z,4.70
2023-02-28T15:43:26.918Z,5.45
2023-02-28T15:45:00.780Z,13.82
2023-02-28T15:46:34.145Z,7.65
2023-02-28T15:48:18.640Z,16.35
2023-02-28T15:49:55.083Z,4.20
2023-02-28T15:51:33.710Z,15.55
2023-02-28T15:53:15.870Z,7.95
2023-02-28T15:54:49.804Z,10.38
2023-02-28T15:56:27.083Z,4.97
2023-02-28T15:58:03.999Z,5.57
2023-02-28T15:59:39.082Z,8.75
2023-02-28T16:01:26.523Z,11.85
2023-02-28T16:02:59.849Z,6.50
2023-02-28T16:04:34.520Z,14.07
2023-02-28T16:06:30.352Z,7.07
2023-02-28T16:08:15.486Z,7.18
2023-02-28T16:09:49.223Z,6.25
2023-02-28T16:11:23.749Z,8.88
2023-02-28T16:12:58.436Z,7.47
2023-02-28T16:14:32.778Z,9.70
2023-02-28T16:16:06.611Z,9.93
2023-02-28T16:17:41.487Z,13.25
2023-02-28T16:19:15.202Z,12.00
2023-02-28T16:20:49.723Z,5.90
2023-02-28T16:22:23.210Z,4.60
2023-02-28T16:23:56.431Z,6.60
2023-02-28T16:25:36.643Z,5.63
2023-02-28T16:27:18.876Z,8.50
2023-02-28T16:28:53.466Z,7.30
2023-02-28T16:30:29.214Z,6.63
2023-02-28T16:32:04.011Z,7.38
2023-02-28T16:33:37.271Z,7.50
2023-02-28T16:35:13.229Z,8.27
2023-02-28T16:36:49.330Z,9.50
2023-02-28T16:38:22.761Z,5.93
2023-02-28T16:39:56.184Z,6.93
2023-02-28T16:41:31.230Z,5.85
2023-02-28T16:43:09.527Z,4.97
2023-02-28T16:44:42.949Z,4.88
2023-02-28T16:46:17.696Z,5.43
2023-02-28T16:47:51.064Z,4.93
2023-02-28T16:49:24.325Z,3.90
2023-02-28T16:50:58.294Z,3.88
2023-02-28T16:52:32.838Z,5.15
2023-02-28T16:54:06.098Z,6.80
2023-02-28T16:55:39.615Z,21.60
2023-02-28T16:57:22.059Z,28.73
2023-02-28T16:59:00.179Z,16.13
2023-02-28T17:00:35.156Z,11.00
2023-02-28T17:02:14.759Z,7.82
2023-02-28T17:03:48.236Z,8.77
2023-02-28T17:05:21.445Z,10.93
2023-02-28T17:06:54.843Z,7.47
2023-02-28T17:08:30.995Z,8.15
2023-02-28T17:10:09.680Z,7.20
2023-02-28T17:11:42.901Z,6.03
2023-02-28T17:13:16.170Z,5.03
2023-02-28T17:14:49.580Z,7.43
2023-02-28T17:16:27.866Z,5.07
2023-02-28T17:18:01.095Z,7.22
2023-02-28T17:19:35.051Z,3.88
2023-02-28T17:21:15.103Z,6.05
2023-02-28T17:22:48.351Z,6.88
2023-02-28T17:24:30.917Z,10.20
2023-02-28T17:26:07.614Z,10.45
2023-02-28T17:27:40.873Z,17.02
2023-02-28T17:29:18.448Z,15.85
2023-02-28T17:30:51.599Z,14.38
2023-02-28T17:32:25.653Z,14.25
2023-02-28T17:33:59.143Z,12.90
2023-02-28T17:35:32.503Z,8.70
2023-02-28T17:37:05.726Z,9.10
2023-02-28T17:38:38.919Z,8.15
2023-02-28T17:40:18.275Z,8.10
2023-02-28T17:41:51.535Z,8.23
2023-02-28T17:43:24.761Z,12.70
2023-02-28T17:44:57.937Z,9.23
2023-02-28T17:46:31.816Z,30.60
2023-02-28T17:48:05.747Z,18.92
2023-02-28T17:49:38.944Z,20.83
2023-02-28T17:51:14.901Z,20.25
2023-02-28T17:52:48.177Z,17.33
2023-02-28T17:54:21.411Z,12.75
2023-02-28T17:55:56.101Z,13.50
2023-02-28T17:57:29.345Z,9.50
2023-02-28T17:59:02.705Z,13.90
2023-02-28T18:00:35.848Z,18.58
2023-02-28T18:02:09.169Z,22.50
2023-02-28T18:03:42.329Z,18.48
2023-02-28T18:05:15.712Z,16.75
2023-02-28T18:06:51.183Z,10.80
2023-02-28T18:08:25.323Z,11.90
2023-02-28T18:09:59.947Z,13.20
2023-02-28T18:11:44.730Z,12.23
2023-02-28T18:13:18.070Z,5.78
2023-02-28T18:14:51.288Z,7.75
2023-02-28T18:16:24.618Z,8.85
2023-02-28T18:17:58.218Z,26.95
2023-02-28T18:19:31.543Z,8.95
2023-02-28T18:21:06.190Z,7.10
2023-02-28T18:22:41.289Z,9.23
2023-02-28T18:24:16.082Z,8.73
2023-02-28T18:25:49.672Z,12.38
2023-02-28T18:27:24.457Z,9.60
2023-02-28T18:28:59.766Z,11.02
2023-02-28T18:30:37.540Z,8.00
2023-02-28T18:32:11.264Z,10.05
2023-02-28T18:33:45.252Z,10.27
2023-02-28T18:35:36.236Z,11.70
2023-02-28T18:37:11.721Z,7.97
2023-02-28T18:38:46.115Z,8.43
2023-02-28T18:40:19.657Z,6.72
2023-02-28T18:41:52.958Z,8.77
2023-02-28T18:43:27.989Z,7.40
2023-02-28T18:45:01.140Z,4.95
2023-02-28T18:46:35.608Z,5.10
2023-02-28T18:48:08.801Z,5.55
2023-02-28T18:49:42.598Z,6.10
2023-02-28T18:51:18.450Z,6.75
2023-02-28T18:52:51.904Z,5.28
2023-02-28T18:54:25.713Z,6.03
2023-02-28T18:56:01.854Z,4.80
2023-02-28T18:57:37.838Z,3.30
2023-02-28T18:59:12.742Z,5.65
2023-02-28T19:00:45.950Z,5.70
2023-02-28T19:02:19.495Z,9.45
2023-02-28T19:03:52.945Z,7.93
2023-02-28T19:05:28.174Z,3.92
2023-02-28T19:07:02.988Z,4.43
2023-02-28T19:08:36.336Z,4.15
2023-02-28T19:10:11.942Z,5.15
2023-02-28T19:11:45.169Z,10.80
2023-02-28T19:13:18.428Z,8.20
2023-02-28T19:14:53.108Z,8.75
2023-02-28T19:16:28.131Z,5.05
2023-02-28T19:18:01.479Z,4.72
2023-02-28T19:19:34.697Z,4.15
2023-02-28T19:21:08.603Z,4.10
2023-02-28T19:22:42.066Z,5.07
2023-02-28T19:24:15.163Z,6.55
2023-02-28T19:25:47.664Z,5.10
2023-02-28T19:27:20.937Z,5.68
2023-02-28T19:28:54.865Z,5.28
2023-02-28T19:30:30.198Z,5.00
2023-02-28T19:32:05.279Z,5.70
2023-02-28T19:33:38.699Z,4.40
2023-02-28T19:35:12.064Z,4.00
2023-02-28T19:36:45.174Z,4.50
2023-02-28T19:38:18.583Z,3.50
2023-02-28T19:39:54.569Z,3.90
2023-02-28T19:41:27.997Z,3.65
2023-02-28T19:43:03.722Z,3.42
2023-02-28T19:44:38.101Z,4.38
2023-02-28T19:46:13.398Z,4.65
2023-02-28T19:47:46.554Z,4.03
2023-02-28T19:49:19.908Z,4.68
2023-02-28T19:50:53.703Z,5.45
2023-02-28T19:52:27.208Z,5.22
2023-02-28T19:54:00.382Z,3.92
2023-02-28T19:55:33.590Z,3.33
2023-02-28T19:57:06.780Z,3.05
2023-02-28T19:58:39.601Z,3.75
2023-02-28T20:00:15.373Z,2.92
2023-02-28T20:01:50.111Z,2.70
2023-02-28T20:03:23.857Z,3.03
2023-02-28T20:04:59.243Z,4.13
2023-02-28T20:06:34.777Z,5.38
2023-02-28T20:08:08.351Z,7.95
2023-02-28T20:09:41.701Z,4.68
2023-02-28T20:11:17.134Z,5.95
2023-02-28T20:12:51.105Z,5.43
2023-02-28T20:14:24.664Z,4.50
2023-02-28T20:16:00.777Z,8.57
2023-02-28T20:17:35.567Z,10.98
2023-02-28T20:19:09.078Z,4.53
2023-02-28T20:20:42.135Z,6.20
2023-02-28T20:22:15.334Z,6.28
2023-02-28T20:23:49.716Z,5.05
2023-02-28T20:25:23.134Z,6.38
2023-02-28T20:26:57.506Z,6.40
2023-02-28T20:28:30.801Z,5.22
2023-02-28T20:30:05.258Z,5.32
2023-02-28T20:31:43.120Z,6.85
2023-02-28T20:33:18.494Z,7.80
2023-02-28T20:34:51.785Z,4.80
2023-02-28T20:36:25.076Z,5.90
2023-02-28T20:37:58.383Z,8.00
2023-02-28T20:39:31.745Z,5.82
2023-02-28T20:41:07.011Z,3.75
2023-02-28T20:42:40.307Z,2.83
2023-02-28T20:44:14.630Z,2.70
2023-02-28T20:45:52.678Z,3.95
2023-02-28T20:47:25.941Z,3.72
2023-02-28T20:49:01.267Z,4.28
2023-02-28T20:50:34.448Z,4.00
2023-02-28T20:52:07.525Z,3.92
2023-02-28T20:53:40.727Z,4.75
2023-02-28T20:55:14.714Z,4.07
2023-02-28T20:56:47.991Z,4.55
2023-02-28T20:58:21.118Z,3.58
2023-02-28T20:59:54.212Z,3.65
2023-02-28T21:01:30.000Z,4.32
2023-02-28T21:03:03.365Z,5.10
2023-02-28T21:04:37.894Z,4.63
2023-02-28T21:06:11.231Z,3.85
2023-02-28T21:07:44.818Z,4.00
2023-02-28T21:09:18.069Z,5.10
2023-02-28T21:10:51.293Z,3.97
2023-02-28T21:12:24.481Z,5.47
2023-02-28T21:14:00.597Z,5.60
2023-02-28T21:15:33.769Z,5.72
2023-02-28T21:17:10.399Z,6.47
2023-02-28T21:18:43.886Z,5.03
2023-02-28T21:20:22.032Z,5.03
2023-02-28T21:21:56.326Z,4.50
2023-02-28T21:23:29.403Z,4.25
2023-02-28T21:25:02.699Z,4.53
2023-02-28T21:26:36.051Z,5.05
2023-02-28T21:28:09.452Z,4.15
2023-02-28T21:29:42.684Z,5.18
2023-02-28T21:31:17.646Z,4.00
2023-02-28T21:32:50.906Z,7.13
2023-02-28T21:34:24.748Z,5.43
2023-02-28T21:36:03.629Z,5.88
2023-02-28T21:37:38.874Z,6.63
2023-02-28T21:39:15.522Z,4.00
2023-02-28T21:40:51.422Z,3.58
2023-02-28T21:42:24.580Z,3.33
2023-02-28T21:43:58.393Z,3.35